createdAt,value
2023-05-01T00:00:16.916Z,35.93
2023-05-01T00:01:16.958Z,35.91
2023-05-01T00:02:17.031Z,35.94
2023-05-01T00:03:17.111Z,35.91
2023-05-01T00:04:17.269Z,35.87
2023-05-01T00:05:17.086Z,35.87
2023-05-01T00:06:17.180Z,35.91
2023-05-01T00:07:17.153Z,35.87
2023-05-01T00:08:17.150Z,35.91
2023-05-01T00:09:17.206Z,35.91
2023-05-01T00:10:17.273Z,35.87
2023-05-01T00:11:17.264Z,35.87
2023-05-01T00:12:17.257Z,35.88
2023-05-01T00:13:17.300Z,35.87
2023-05-01T00:14:17.343Z,35.88
2023-05-01T00:15:17.756Z,35.85
2023-05-01T00:16:17.393Z,35.90
2023-05-01T00:17:17.424Z,35.87
2023-05-01T00:18:17.485Z,35.93
2023-05-01T00:19:17.444Z,35.88
2023-05-01T00:20:17.473Z,35.87
2023-05-01T00:21:17.494Z,35.86
2023-05-01T00:22:17.567Z,35.87
2023-05-01T00:23:17.571Z,35.88
2023-05-01T00:24:17.612Z,35.82
2023-05-01T00:25:17.613Z,35.87
2023-05-01T00:26:17.651Z,35.87
2023-05-01T00:27:17.691Z,35.85
2023-05-01T00:28:17.705Z,35.87
2023-05-01T00:29:17.761Z,35.87
2023-05-01T00:30:17.778Z,35.87
2023-05-01T00:31:17.791Z,35.88
2023-05-01T00:32:17.851Z,35.87
2023-05-01T00:33:17.845Z,35.82
2023-05-01T00:34:17.900Z,35.88
2023-05-01T00:35:18.264Z,35.85
2023-05-01T00:36:17.906Z,35.88
2023-05-01T00:37:17.937Z,35.82
2023-05-01T00:38:17.958Z,35.83
2023-05-01T00:39:17.999Z,35.87
2023-05-01T00:40:18.279Z,35.84
2023-05-01T00:41:18.053Z,35.83
2023-05-01T00:42:18.047Z,35.83
2023-05-01T00:43:18.061Z,35.82
2023-05-01T00:44:18.089Z,35.85
2023-05-01T00:45:18.319Z,35.83
2023-05-01T00:46:18.196Z,35.84
2023-05-01T00:47:18.197Z,35.80
2023-05-01T00:48:18.208Z,35.82
2023-05-01T00:49:18.273Z,35.80
2023-05-01T00:50:18.276Z,35.85
2023-05-01T00:51:18.321Z,35.83
2023-05-01T00:52:18.325Z,35.88
2023-05-01T00:53:18.398Z,35.84
2023-05-01T00:54:18.409Z,35.84
2023-05-01T00:55:18.409Z,35.87
2023-05-01T00:56:18.437Z,35.83
2023-05-01T00:57:18.450Z,35.84
2023-05-01T00:58:18.470Z,35.81
2023-05-01T00:59:18.484Z,35.77
2023-05-01T01:00:18.787Z,35.83
2023-05-01T01:01:18.576Z,35.88
2023-05-01T01:02:18.573Z,35.83
2023-05-01T01:03:18.562Z,35.83
2023-05-01T01:04:18.638Z,35.81
2023-05-01T01:05:18.789Z,35.83
2023-05-01T01:06:18.720Z,35.80
2023-05-01T01:07:18.672Z,35.83
2023-05-01T01:08:18.765Z,35.83
2023-05-01T01:09:18.745Z,35.83
2023-05-01T01:10:18.774Z,35.83
2023-05-01T01:11:18.821Z,35.78
2023-05-01T01:12:18.850Z,35.78
2023-05-01T01:13:18.866Z,35.80
2023-05-01T01:14:18.920Z,35.81
2023-05-01T01:15:19.270Z,35.81
2023-05-01T01:16:19.027Z,35.83
2023-05-01T01:17:19.047Z,35.83
2023-05-01T01:18:19.006Z,35.83
2023-05-01T01:19:19.053Z,35.84
2023-05-01T01:20:19.046Z,35.77
2023-05-01T01:21:19.094Z,35.82
2023-05-01T01:22:19.121Z,35.83
2023-05-01T01:23:19.152Z,35.84
2023-05-01T01:24:19.183Z,35.78
2023-05-01T01:25:19.228Z,35.84
2023-05-01T01:26:19.204Z,35.81
2023-05-01T01:27:19.284Z,35.78
2023-05-01T01:28:19.311Z,35.81
2023-05-01T01:29:19.326Z,35.78
2023-05-01T01:30:19.773Z,35.82
2023-05-01T01:31:19.448Z,35.82
2023-05-01T01:32:19.402Z,35.81
2023-05-01T01:33:19.432Z,35.82
2023-05-01T01:34:19.508Z,35.84
2023-05-01T01:35:19.791Z,35.81
2023-05-01T01:36:19.534Z,35.81
2023-05-01T01:37:19.580Z,35.82
2023-05-01T01:38:19.632Z,35.82
2023-05-01T01:39:19.643Z,35.81
2023-05-01T01:40:19.787Z,35.80
2023-05-01T01:41:19.746Z,35.81
2023-05-01T01:42:19.772Z,35.84
2023-05-01T01:43:19.776Z,35.78
2023-05-01T01:44:19.852Z,35.85
2023-05-01T01:45:20.289Z,35.81
2023-05-01T01:46:19.955Z,35.82
2023-05-01T01:47:19.932Z,35.82
2023-05-01T01:48:19.976Z,35.81
2023-05-01T01:49:20.890Z,35.81
2023-05-01T01:50:20.308Z,35.81
2023-05-01T01:51:20.080Z,35.78
2023-05-01T01:52:20.135Z,35.78
2023-05-01T01:53:20.159Z,35.79
2023-05-01T01:54:20.141Z,35.81
2023-05-01T01:55:20.295Z,35.80
2023-05-01T01:56:20.236Z,35.82
2023-05-01T01:57:20.291Z,35.79
2023-05-01T01:58:20.310Z,35.76
2023-05-01T01:59:20.343Z,35.74
2023-05-01T02:00:20.833Z,35.80
2023-05-01T02:01:20.431Z,35.77
2023-05-01T02:02:20.440Z,35.77
2023-05-01T02:03:20.502Z,35.79
2023-05-01T02:04:20.524Z,35.79
2023-05-01T02:05:20.542Z,35.78
2023-05-01T02:06:20.660Z,35.75
2023-05-01T02:07:20.577Z,35.81
2023-05-01T02:08:20.620Z,35.80
2023-05-01T02:09:20.656Z,35.79
2023-05-01T02:10:20.683Z,35.76
2023-05-01T02:11:20.709Z,35.74
2023-05-01T02:12:20.724Z,35.79
2023-05-01T02:13:20.767Z,35.75
2023-05-01T02:14:20.764Z,35.77
2023-05-01T02:15:20.843Z,35.77
2023-05-01T02:16:20.931Z,35.77
2023-05-01T02:17:21.004Z,35.75
2023-05-01T02:18:20.934Z,35.78
2023-05-01T02:19:20.972Z,35.77
2023-05-01T02:20:21.003Z,35.77
2023-05-01T02:21:21.065Z,35.75
2023-05-01T02:22:21.064Z,35.74
2023-05-01T02:23:21.103Z,35.75
2023-05-01T02:24:21.140Z,35.78
2023-05-01T02:25:21.193Z,35.75
2023-05-01T02:26:21.213Z,35.76
2023-05-01T02:27:21.239Z,35.78
2023-05-01T02:28:21.308Z,35.79
2023-05-01T02:29:21.305Z,35.78
2023-05-01T02:30:21.357Z,35.75
2023-05-01T02:31:21.843Z,35.78
2023-05-01T02:32:21.472Z,35.79
2023-05-01T02:33:21.468Z,35.78
2023-05-01T02:34:21.496Z,35.79
2023-05-01T02:35:21.553Z,35.74
2023-05-01T02:36:21.568Z,35.73
2023-05-01T02:37:21.605Z,35.76
2023-05-01T02:38:21.654Z,35.78
2023-05-01T02:39:21.693Z,35.77
2023-05-01T02:40:21.732Z,35.76
2023-05-01T02:41:21.800Z,35.80
2023-05-01T02:42:21.824Z,35.74
2023-05-01T02:43:21.826Z,35.78
2023-05-01T02:44:21.840Z,35.78
2023-05-01T02:45:21.876Z,35.79
2023-05-01T02:46:22.024Z,35.74
2023-05-01T02:47:21.993Z,35.79
2023-05-01T02:48:22.026Z,35.77
2023-05-01T02:49:22.009Z,35.73
2023-05-01T02:50:22.078Z,35.76
2023-05-01T02:51:22.123Z,35.80
2023-05-01T02:52:22.336Z,35.76
2023-05-01T02:53:22.165Z,35.76
2023-05-01T02:54:22.215Z,35.82
2023-05-01T02:55:22.280Z,35.83
2023-05-01T02:56:22.312Z,35.79
2023-05-01T02:57:22.354Z,35.83
2023-05-01T02:58:22.359Z,35.80
2023-05-01T02:59:22.408Z,35.80
2023-05-01T03:00:22.444Z,35.77
2023-05-01T03:01:22.584Z,35.80
2023-05-01T03:02:22.503Z,35.80
2023-05-01T03:03:22.590Z,35.79
2023-05-01T03:04:22.741Z,35.80
2023-05-01T03:05:22.654Z,35.80
2023-05-01T03:06:22.744Z,35.79
2023-05-01T03:07:22.740Z,35.80
2023-05-01T03:08:22.764Z,35.80
2023-05-01T03:09:22.794Z,35.79
2023-05-01T03:10:22.846Z,35.79
2023-05-01T03:11:22.862Z,35.77
2023-05-01T03:12:22.889Z,35.76
2023-05-01T03:13:22.949Z,35.76
2023-05-01T03:14:22.996Z,35.80
2023-05-01T03:15:23.026Z,35.82
2023-05-01T03:16:23.112Z,35.79
2023-05-01T03:17:23.154Z,35.80
2023-05-01T03:18:23.202Z,35.83
2023-05-01T03:19:23.195Z,35.76
2023-05-01T03:20:23.230Z,35.78
2023-05-01T03:21:23.270Z,35.77
2023-05-01T03:22:23.290Z,35.78
2023-05-01T03:23:23.357Z,35.75
2023-05-01T03:24:23.370Z,35.77
2023-05-01T03:25:23.404Z,35.73
2023-05-01T03:26:23.441Z,35.76
2023-05-01T03:27:23.506Z,35.82
2023-05-01T03:28:23.575Z,35.83
2023-05-01T03:29:23.567Z,35.80
2023-05-01T03:30:23.633Z,35.79
2023-05-01T03:31:23.678Z,35.76
2023-05-01T03:32:23.798Z,35.79
2023-05-01T03:33:23.747Z,35.76
2023-05-01T03:34:23.806Z,35.80
2023-05-01T03:35:23.878Z,35.79
2023-05-01T03:36:23.858Z,35.80
2023-05-01T03:37:23.932Z,35.76
2023-05-01T03:38:23.935Z,35.76
2023-05-01T03:39:23.981Z,35.73
2023-05-01T03:40:24.022Z,35.72
2023-05-01T03:41:24.061Z,35.73
2023-05-01T03:42:24.115Z,35.71
2023-05-01T03:43:24.152Z,35.71
2023-05-01T03:44:24.705Z,35.72
2023-05-01T03:45:24.402Z,35.73
2023-05-01T03:46:24.315Z,35.73
2023-05-01T03:47:24.260Z,35.72
2023-05-01T03:48:24.270Z,35.72
2023-05-01T03:49:24.324Z,35.72
2023-05-01T03:50:24.377Z,35.68
2023-05-01T03:51:24.372Z,35.72
2023-05-01T03:52:24.416Z,35.73
2023-05-01T03:53:24.462Z,35.76
2023-05-01T03:54:24.481Z,35.71
2023-05-01T03:55:24.542Z,35.69
2023-05-01T03:56:24.549Z,35.66
2023-05-01T03:57:24.611Z,35.66
2023-05-01T03:58:24.674Z,35.72
2023-05-01T03:59:24.704Z,35.71
2023-05-01T04:00:24.740Z,35.72
2023-05-01T04:01:24.787Z,35.72
2023-05-01T04:02:24.890Z,35.65
2023-05-01T04:03:24.910Z,35.66
2023-05-01T04:04:24.923Z,35.68
2023-05-01T04:05:24.947Z,35.73
2023-05-01T04:06:25.392Z,35.73
2023-05-01T04:07:25.021Z,35.73
2023-05-01T04:08:25.837Z,35.74
2023-05-01T04:09:25.120Z,35.69
2023-05-01T04:10:25.160Z,35.73
2023-05-01T04:11:25.203Z,35.72
2023-05-01T04:12:25.248Z,35.71
2023-05-01T04:13:25.266Z,35.74
2023-05-01T04:14:25.312Z,35.72
2023-05-01T04:15:25.339Z,35.76
2023-05-01T04:16:25.432Z,35.71
2023-05-01T04:17:25.404Z,35.74
2023-05-01T04:18:25.449Z,35.71
2023-05-01T04:19:25.498Z,35.71
2023-05-01T04:20:25.510Z,35.74
2023-05-01T04:21:25.600Z,35.73
2023-05-01T04:22:25.612Z,35.74
2023-05-01T04:23:25.654Z,35.76
2023-05-01T04:24:25.711Z,35.72
2023-05-01T04:25:25.754Z,35.80
2023-05-01T04:26:25.842Z,35.77
2023-05-01T04:27:25.817Z,35.76
2023-05-01T04:28:25.866Z,35.74
2023-05-01T04:29:25.940Z,35.71
2023-05-01T04:30:25.937Z,35.72
2023-05-01T04:31:26.027Z,35.72
2023-05-01T04:32:26.043Z,35.73
2023-05-01T04:33:26.030Z,35.68
2023-05-01T04:34:26.854Z,35.72
2023-05-01T04:35:26.106Z,35.72
2023-05-01T04:36:26.327Z,35.73
2023-05-01T04:37:26.195Z,35.74
2023-05-01T04:38:26.195Z,35.69
2023-05-01T04:39:26.261Z,35.69
2023-05-01T04:40:26.288Z,35.69
2023-05-01T04:41:26.333Z,35.72
2023-05-01T04:42:26.362Z,35.73
2023-05-01T04:43:26.436Z,35.74
2023-05-01T04:44:26.444Z,35.80
2023-05-01T04:45:26.502Z,35.73
2023-05-01T04:46:26.550Z,35.76
2023-05-01T04:47:26.565Z,35.73
2023-05-01T04:48:26.655Z,35.72
2023-05-01T04:49:26.640Z,35.71
2023-05-01T04:50:26.678Z,35.72
2023-05-01T04:51:26.851Z,35.73
2023-05-01T04:52:26.766Z,35.77
2023-05-01T04:53:26.803Z,35.74
2023-05-01T04:54:26.933Z,35.70
2023-05-01T04:55:28.109Z,35.70
2023-05-01T04:56:26.899Z,35.74
2023-05-01T04:57:26.864Z,35.74
2023-05-01T04:58:26.863Z,35.73
2023-05-01T04:59:26.856Z,35.73
2023-05-01T05:00:26.948Z,35.72
2023-05-01T05:01:26.897Z,35.73
2023-05-01T05:02:26.945Z,35.74
2023-05-01T05:03:26.906Z,35.74
2023-05-01T05:04:26.818Z,35.73
2023-05-01T05:05:26.818Z,35.73
2023-05-01T05:06:26.890Z,35.72
2023-05-01T05:07:26.797Z,35.68
2023-05-01T05:08:26.817Z,35.73
2023-05-01T05:09:26.763Z,35.74
2023-05-01T05:10:26.782Z,35.76
2023-05-01T05:11:26.873Z,35.72
2023-05-01T05:12:26.772Z,35.73
2023-05-01T05:13:26.752Z,35.73
2023-05-01T05:14:26.744Z,35.68
2023-05-01T05:15:26.759Z,35.70
2023-05-01T05:16:26.877Z,35.70
2023-05-01T05:17:26.800Z,35.66
2023-05-01T05:18:26.712Z,35.71
2023-05-01T05:19:26.710Z,35.72
2023-05-01T05:20:26.716Z,35.69
2023-05-01T05:21:26.847Z,35.66
2023-05-01T05:22:26.697Z,35.76
2023-05-01T05:23:26.720Z,35.70
2023-05-01T05:24:26.700Z,35.71
2023-05-01T05:25:26.672Z,35.71
2023-05-01T05:26:26.840Z,35.73
2023-05-01T05:27:26.688Z,35.75
2023-05-01T05:28:26.679Z,35.73
2023-05-01T05:29:26.670Z,35.77
2023-05-01T05:30:26.663Z,35.75
2023-05-01T05:31:26.731Z,35.74
2023-05-01T05:32:26.697Z,35.74
2023-05-01T05:33:26.640Z,35.74
2023-05-01T05:34:26.620Z,35.74
2023-05-01T05:35:26.637Z,35.73
2023-05-01T05:36:26.594Z,35.71
2023-05-01T05:37:26.628Z,35.75
2023-05-01T05:38:26.570Z,35.77
2023-05-01T05:39:26.573Z,35.74
2023-05-01T05:40:26.606Z,35.67
2023-05-01T05:41:26.596Z,35.71
2023-05-01T05:42:26.570Z,35.76
2023-05-01T05:43:28.111Z,35.73
2023-05-01T05:44:26.547Z,35.73
2023-05-01T05:45:26.555Z,35.73
2023-05-01T05:46:26.623Z,35.71
2023-05-01T05:47:26.535Z,35.73
2023-05-01T05:48:26.554Z,35.71
2023-05-01T05:49:26.515Z,35.72
2023-05-01T05:50:26.524Z,35.73
2023-05-01T05:51:26.552Z,35.76
2023-05-01T05:52:26.867Z,35.76
2023-05-01T05:53:26.727Z,35.73
2023-05-01T05:54:26.660Z,35.70
2023-05-01T05:55:26.684Z,35.73
2023-05-01T05:56:26.746Z,35.76
2023-05-01T05:57:26.783Z,35.73
2023-05-01T05:58:26.773Z,35.69
2023-05-01T05:59:26.813Z,35.70
2023-05-01T06:00:26.885Z,35.68
2023-05-01T06:01:26.910Z,35.73
2023-05-01T06:02:27.544Z,35.70
2023-05-01T06:03:27.202Z,35.69
2023-05-01T06:04:27.036Z,35.73
2023-05-01T06:05:27.104Z,35.69
2023-05-01T06:06:27.146Z,35.71
2023-05-01T06:07:27.369Z,35.74
2023-05-01T06:08:27.163Z,35.70
2023-05-01T06:09:27.246Z,35.71
2023-05-01T06:10:27.254Z,35.74
2023-05-01T06:11:27.278Z,35.70
2023-05-01T06:12:27.327Z,35.70
2023-05-01T06:13:27.374Z,35.74
2023-05-01T06:14:27.412Z,35.74
2023-05-01T06:15:27.506Z,35.73
2023-05-01T06:16:27.593Z,35.66
2023-05-01T06:17:27.896Z,35.70
2023-05-01T06:18:27.561Z,35.73
2023-05-01T06:19:27.581Z,35.73
2023-05-01T06:20:27.640Z,35.73
2023-05-01T06:21:27.695Z,35.68
2023-05-01T06:22:27.747Z,35.71
2023-05-01T06:23:27.749Z,35.71
2023-05-01T06:24:27.793Z,35.71
2023-05-01T06:25:27.804Z,35.71
2023-05-01T06:26:27.868Z,35.69
2023-05-01T06:27:27.915Z,35.71
2023-05-01T06:28:27.953Z,35.71
2023-05-01T06:29:27.986Z,35.72
2023-05-01T06:30:28.074Z,35.68
2023-05-01T06:31:28.094Z,35.71
2023-05-01T06:32:28.186Z,35.69
2023-05-01T06:33:28.172Z,35.72
2023-05-01T06:34:28.231Z,35.69
2023-05-01T06:35:28.273Z,35.69
2023-05-01T06:36:28.304Z,35.66
2023-05-01T06:37:28.333Z,35.69
2023-05-01T06:38:28.369Z,35.72
2023-05-01T06:39:28.423Z,35.69
2023-05-01T06:40:28.534Z,35.72
2023-05-01T06:41:28.515Z,35.72
2023-05-01T06:42:28.543Z,35.68
2023-05-01T06:43:28.567Z,35.71
2023-05-01T06:44:29.946Z,35.69
2023-05-01T06:45:28.639Z,35.72
2023-05-01T06:46:28.721Z,35.69
2023-05-01T06:47:28.778Z,35.69
2023-05-01T06:48:28.783Z,35.68
2023-05-01T06:49:28.780Z,35.69
2023-05-01T06:50:28.829Z,35.68
2023-05-01T06:51:28.885Z,35.68
2023-05-01T06:52:29.168Z,35.66
2023-05-01T06:53:28.915Z,35.71
2023-05-01T06:54:28.984Z,35.68
2023-05-01T06:55:29.019Z,35.70
2023-05-01T06:56:29.074Z,35.68
2023-05-01T06:57:29.100Z,35.69
2023-05-01T06:58:29.176Z,35.72
2023-05-01T06:59:29.194Z,35.68
2023-05-01T07:00:29.303Z,35.69
2023-05-01T07:01:29.274Z,35.68
2023-05-01T07:02:29.433Z,35.72
2023-05-01T07:03:29.363Z,35.68
2023-05-01T07:04:29.426Z,35.72
2023-05-01T07:05:29.417Z,35.72
2023-05-01T07:06:29.492Z,35.71
2023-05-01T07:07:29.507Z,35.71
2023-05-01T07:08:29.553Z,35.72
2023-05-01T07:09:29.583Z,35.62
2023-05-01T07:10:29.612Z,35.64
2023-05-01T07:11:29.647Z,35.69
2023-05-01T07:12:29.914Z,35.68
2023-05-01T07:13:29.723Z,35.65
2023-05-01T07:14:29.738Z,35.62
2023-05-01T07:15:29.779Z,35.66
2023-05-01T07:16:29.940Z,35.71
2023-05-01T07:17:29.890Z,35.66
2023-05-01T07:18:29.927Z,35.65
2023-05-01T07:19:29.935Z,35.66
2023-05-01T07:20:29.962Z,35.64
2023-05-01T07:21:29.988Z,35.66
2023-05-01T07:22:30.405Z,35.68
2023-05-01T07:23:30.085Z,35.65
2023-05-01T07:24:30.200Z,35.68
2023-05-01T07:25:30.138Z,35.66
2023-05-01T07:26:30.159Z,35.64
2023-05-01T07:27:30.205Z,35.67
2023-05-01T07:28:30.219Z,35.66
2023-05-01T07:29:30.299Z,35.66
2023-05-01T07:30:30.293Z,35.65
2023-05-01T07:31:30.383Z,35.71
2023-05-01T07:32:30.430Z,35.67
2023-05-01T07:33:30.387Z,35.66
2023-05-01T07:34:30.433Z,35.68
2023-05-01T07:35:30.495Z,35.65
2023-05-01T07:36:30.454Z,35.71
2023-05-01T07:37:30.513Z,35.66
2023-05-01T07:38:30.546Z,35.66
2023-05-01T07:39:30.570Z,35.64
2023-05-01T07:40:30.629Z,35.64
2023-05-01T07:41:30.686Z,35.68
2023-05-01T07:42:30.726Z,35.68
2023-05-01T07:43:30.823Z,35.66
2023-05-01T07:44:30.806Z,35.66
2023-05-01T07:45:30.805Z,35.63
2023-05-01T07:46:30.866Z,35.66
2023-05-01T07:47:30.993Z,35.68
2023-05-01T07:48:30.922Z,35.69
2023-05-01T07:49:30.960Z,35.69
2023-05-01T07:50:31.004Z,35.68
2023-05-01T07:51:31.073Z,35.58
2023-05-01T07:52:31.404Z,35.64
2023-05-01T07:53:31.091Z,35.69
2023-05-01T07:54:31.127Z,35.69
2023-05-01T07:55:31.170Z,35.65
2023-05-01T07:56:31.346Z,35.72
2023-05-01T07:57:31.401Z,35.71
2023-05-01T07:58:31.319Z,35.68
2023-05-01T07:59:31.339Z,35.72
2023-05-01T08:00:31.393Z,35.71
2023-05-01T08:01:31.410Z,35.68
2023-05-01T08:02:31.597Z,35.69
2023-05-01T08:03:31.729Z,35.71
2023-05-01T08:04:31.574Z,35.69
2023-05-01T08:05:31.549Z,35.66
2023-05-01T08:06:31.736Z,35.71
2023-05-01T08:07:31.907Z,35.73
2023-05-01T08:08:31.667Z,35.69
2023-05-01T08:09:31.731Z,35.71
2023-05-01T08:10:31.762Z,35.69
2023-05-01T08:11:31.792Z,35.71
2023-05-01T08:12:31.914Z,35.64
2023-05-01T08:13:31.842Z,35.65
2023-05-01T08:14:31.903Z,35.63
2023-05-01T08:15:31.936Z,35.66
2023-05-01T08:16:32.102Z,35.68
2023-05-01T08:17:32.049Z,35.63
2023-05-01T08:18:32.065Z,35.68
2023-05-01T08:19:32.092Z,35.66
2023-05-01T08:20:32.103Z,35.64
2023-05-01T08:21:32.145Z,35.65
2023-05-01T08:22:32.207Z,35.67
2023-05-01T08:23:32.264Z,35.60
2023-05-01T08:24:32.266Z,35.64
2023-05-01T08:25:32.308Z,35.64
2023-05-01T08:26:32.330Z,35.63
2023-05-01T08:27:32.358Z,35.68
2023-05-01T08:28:32.416Z,35.63
2023-05-01T08:29:32.439Z,35.64
2023-05-01T08:30:32.502Z,35.64
2023-05-01T08:31:32.544Z,35.66
2023-05-01T08:32:32.632Z,35.63
2023-05-01T08:33:32.581Z,35.64
2023-05-01T08:34:32.629Z,35.64
2023-05-01T08:35:32.623Z,35.64
2023-05-01T08:36:32.661Z,35.66
2023-05-01T08:37:32.703Z,35.64
2023-05-01T08:38:32.742Z,35.66
2023-05-01T08:39:32.786Z,35.63
2023-05-01T08:40:32.834Z,35.67
2023-05-01T08:41:32.865Z,35.62
2023-05-01T08:42:32.936Z,35.64
2023-05-01T08:43:32.930Z,35.61
2023-05-01T08:44:32.980Z,35.63
2023-05-01T08:45:32.981Z,35.61
2023-05-01T08:46:33.041Z,35.60
2023-05-01T08:47:33.085Z,35.64
2023-05-01T08:48:33.075Z,35.61
2023-05-01T08:49:33.096Z,35.63
2023-05-01T08:50:33.166Z,35.64
2023-05-01T08:51:33.201Z,35.61
2023-05-01T08:52:33.238Z,35.66
2023-05-01T08:53:33.275Z,35.65
2023-05-01T08:54:33.312Z,35.66
2023-05-01T08:55:33.327Z,35.64
2023-05-01T08:56:33.343Z,35.68
2023-05-01T08:57:33.418Z,35.71
2023-05-01T08:58:33.398Z,35.64
2023-05-01T08:59:33.451Z,35.64
2023-05-01T09:00:33.475Z,35.68
2023-05-01T09:01:33.554Z,35.66
2023-05-01T09:02:33.981Z,35.67
2023-05-01T09:03:33.597Z,35.64
2023-05-01T09:04:33.579Z,35.59
2023-05-01T09:05:33.601Z,35.63
2023-05-01T09:06:33.681Z,35.63
2023-05-01T09:07:33.695Z,35.58
2023-05-01T09:08:33.688Z,35.66
2023-05-01T09:09:33.755Z,35.66
2023-05-01T09:10:33.756Z,35.60
2023-05-01T09:11:33.829Z,35.63
2023-05-01T09:12:33.843Z,35.65
2023-05-01T09:13:33.902Z,35.60
2023-05-01T09:14:33.924Z,35.63
2023-05-01T09:15:33.919Z,35.66
2023-05-01T09:16:34.261Z,35.65
2023-05-01T09:17:34.059Z,35.63
2023-05-01T09:18:34.045Z,35.63
2023-05-01T09:19:34.087Z,35.62
2023-05-01T09:20:34.088Z,35.62
2023-05-01T09:21:34.118Z,35.62
2023-05-01T09:22:34.174Z,35.68
2023-05-01T09:23:34.204Z,35.68
2023-05-01T09:24:34.259Z,35.67
2023-05-01T09:25:34.286Z,35.65
2023-05-01T09:26:34.331Z,35.63
2023-05-01T09:27:34.339Z,35.65
2023-05-01T09:28:34.379Z,35.65
2023-05-01T09:29:34.423Z,35.59
2023-05-01T09:30:34.462Z,35.65
2023-05-01T09:31:34.533Z,35.62
2023-05-01T09:32:34.523Z,35.65
2023-05-01T09:33:34.533Z,35.63
2023-05-01T09:34:34.557Z,35.63
2023-05-01T09:35:34.569Z,35.65
2023-05-01T09:36:34.614Z,35.62
2023-05-01T09:37:34.656Z,35.63
2023-05-01T09:38:34.680Z,35.63
2023-05-01T09:39:34.735Z,35.58
2023-05-01T09:40:34.731Z,35.59
2023-05-01T09:41:34.768Z,35.62
2023-05-01T09:42:34.827Z,35.60
2023-05-01T09:43:34.840Z,35.61
2023-05-01T09:44:34.867Z,35.65
2023-05-01T09:45:34.930Z,35.59
2023-05-01T09:46:35.043Z,35.57
2023-05-01T09:47:34.989Z,35.57
2023-05-01T09:48:36.189Z,35.62
2023-05-01T09:49:35.007Z,35.57
2023-05-01T09:50:35.099Z,35.58
2023-05-01T09:51:35.054Z,35.58
2023-05-01T09:52:35.439Z,35.54
2023-05-01T09:53:35.136Z,35.55
2023-05-01T09:54:35.231Z,35.58
2023-05-01T09:55:35.172Z,35.54
2023-05-01T09:56:35.213Z,35.57
2023-05-01T09:57:35.235Z,35.58
2023-05-01T09:58:35.308Z,35.58
2023-05-01T09:59:35.335Z,35.57
2023-05-01T10:00:35.331Z,35.55
2023-05-01T10:01:35.451Z,35.61
2023-05-01T10:02:35.474Z,35.59
2023-05-01T10:03:35.547Z,35.59
2023-05-01T10:04:35.463Z,35.55
2023-05-01T10:05:35.452Z,35.60
2023-05-01T10:06:35.604Z,35.58
2023-05-01T10:07:35.963Z,35.60
2023-05-01T10:08:35.559Z,35.57
2023-05-01T10:09:35.574Z,35.55
2023-05-01T10:10:35.671Z,35.55
2023-05-01T10:11:35.613Z,35.56
2023-05-01T10:12:35.990Z,35.53
2023-05-01T10:13:35.679Z,35.55
2023-05-01T10:14:35.749Z,35.53
2023-05-01T10:15:35.755Z,35.56
2023-05-01T10:16:35.836Z,35.56
2023-05-01T10:17:35.842Z,35.57
2023-05-01T10:18:35.826Z,35.54
2023-05-01T10:19:35.870Z,35.56
2023-05-01T10:20:35.891Z,35.54
2023-05-01T10:21:35.893Z,35.53
2023-05-01T10:22:35.954Z,35.53
2023-05-01T10:23:35.957Z,35.54
2023-05-01T10:24:36.003Z,35.54
2023-05-01T10:25:36.020Z,35.49
2023-05-01T10:26:36.044Z,35.54
2023-05-01T10:27:36.061Z,35.53
2023-05-01T10:28:36.079Z,35.57
2023-05-01T10:29:36.109Z,35.53
2023-05-01T10:30:36.152Z,35.56
2023-05-01T10:31:36.261Z,35.51
2023-05-01T10:32:36.522Z,35.49
2023-05-01T10:33:36.211Z,35.50
2023-05-01T10:34:36.239Z,35.56
2023-05-01T10:35:36.275Z,35.52
2023-05-01T10:36:36.309Z,35.54
2023-05-01T10:37:36.328Z,35.51
2023-05-01T10:38:36.375Z,35.56
2023-05-01T10:39:36.378Z,35.50
2023-05-01T10:40:36.403Z,35.50
2023-05-01T10:41:36.427Z,35.53
2023-05-01T10:42:36.450Z,35.55
2023-05-01T10:43:36.478Z,35.53
2023-05-01T10:44:36.510Z,35.56
2023-05-01T10:45:36.513Z,35.56
2023-05-01T10:46:36.606Z,35.52
2023-05-01T10:47:36.650Z,35.53
2023-05-01T10:48:36.620Z,35.56
2023-05-01T10:49:36.610Z,35.50
2023-05-01T10:50:36.671Z,35.53
2023-05-01T10:51:36.675Z,35.56
2023-05-01T10:52:36.837Z,35.59
2023-05-01T10:53:36.719Z,35.53
2023-05-01T10:54:36.767Z,35.55
2023-05-01T10:55:36.771Z,35.49
2023-05-01T10:56:36.781Z,35.50
2023-05-01T10:57:36.835Z,35.57
2023-05-01T10:58:36.918Z,35.55
2023-05-01T10:59:36.898Z,35.55
2023-05-01T11:00:36.928Z,35.53
2023-05-01T11:01:37.024Z,35.56
2023-05-01T11:02:36.968Z,35.55
2023-05-01T11:03:36.999Z,35.51
2023-05-01T11:04:37.030Z,35.54
2023-05-01T11:05:38.596Z,35.55
2023-05-01T11:06:37.138Z,35.53
2023-05-01T11:07:37.108Z,35.55
2023-05-01T11:08:37.133Z,35.55
2023-05-01T11:09:37.119Z,35.53
2023-05-01T11:10:37.176Z,35.52
2023-05-01T11:11:37.185Z,35.56
2023-05-01T11:12:37.228Z,35.51
2023-05-01T11:13:37.244Z,35.58
2023-05-01T11:14:37.266Z,35.54
2023-05-01T11:15:37.268Z,35.53
2023-05-01T11:16:37.365Z,35.55
2023-05-01T11:17:37.347Z,35.55
2023-05-01T11:18:37.334Z,35.55
2023-05-01T11:19:37.371Z,35.54
2023-05-01T11:20:37.381Z,35.56
2023-05-01T11:21:37.385Z,35.49
2023-05-01T11:22:37.424Z,35.52
2023-05-01T11:23:37.482Z,35.55
2023-05-01T11:24:37.480Z,35.51
2023-05-01T11:25:37.488Z,35.55
2023-05-01T11:26:37.519Z,35.55
2023-05-01T11:27:37.559Z,35.56
2023-05-01T11:28:37.552Z,35.54
2023-05-01T11:29:37.574Z,35.51
2023-05-01T11:30:37.601Z,35.55
2023-05-01T11:31:37.664Z,35.55
2023-05-01T11:32:38.030Z,35.51
2023-05-01T11:33:37.670Z,35.51
2023-05-01T11:34:37.673Z,35.52
2023-05-01T11:35:37.713Z,35.56
2023-05-01T11:36:37.739Z,35.52
2023-05-01T11:37:37.759Z,35.57
2023-05-01T11:38:37.782Z,35.51
2023-05-01T11:39:37.790Z,35.55
2023-05-01T11:40:37.830Z,35.54
2023-05-01T11:41:37.821Z,35.54
2023-05-01T11:42:37.907Z,35.51
2023-05-01T11:43:37.950Z,35.52
2023-05-01T11:44:37.928Z,35.54
2023-05-01T11:45:38.108Z,35.51
2023-05-01T11:46:37.964Z,35.52
2023-05-01T11:47:37.990Z,35.55
2023-05-01T11:48:38.453Z,35.56
2023-05-01T11:49:38.052Z,35.57
2023-05-01T11:50:38.083Z,35.51
2023-05-01T11:51:38.109Z,35.54
2023-05-01T11:52:38.112Z,35.57
2023-05-01T11:53:38.494Z,35.51
2023-05-01T11:54:38.171Z,35.50
2023-05-01T11:55:38.189Z,35.55
2023-05-01T11:56:38.242Z,35.55
2023-05-01T11:57:38.245Z,35.52
2023-05-01T11:58:38.263Z,35.51
2023-05-01T11:59:38.297Z,35.55
2023-05-01T12:00:38.336Z,35.55
2023-05-01T12:01:38.382Z,35.54
2023-05-01T12:02:38.593Z,35.54
2023-05-01T12:03:38.460Z,35.51
2023-05-01T12:04:38.468Z,35.54
2023-05-01T12:05:38.449Z,35.58
2023-05-01T12:06:38.501Z,35.55
2023-05-01T12:07:38.476Z,35.54
2023-05-01T12:08:38.541Z,35.52
2023-05-01T12:09:38.560Z,35.55
2023-05-01T12:10:38.561Z,35.54
2023-05-01T12:11:38.572Z,35.52
2023-05-01T12:12:38.583Z,35.60
2023-05-01T12:13:38.598Z,35.61
2023-05-01T12:14:38.633Z,35.54
2023-05-01T12:15:38.651Z,35.51
2023-05-01T12:16:38.704Z,35.55
2023-05-01T12:17:38.661Z,35.59
2023-05-01T12:18:38.698Z,35.57
2023-05-01T12:19:38.728Z,35.57
2023-05-01T12:20:38.751Z,35.57
2023-05-01T12:21:38.756Z,35.54
2023-05-01T12:22:38.749Z,35.54
2023-05-01T12:23:38.790Z,35.54
2023-05-01T12:24:38.847Z,35.57
2023-05-01T12:25:38.808Z,35.55
2023-05-01T12:26:38.864Z,35.52
2023-05-01T12:27:38.866Z,35.58
2023-05-01T12:28:38.864Z,35.60
2023-05-01T12:29:38.900Z,35.51
2023-05-01T12:30:38.930Z,35.58
2023-05-01T12:31:38.988Z,35.57
2023-05-01T12:32:39.032Z,35.58
2023-05-01T12:33:38.964Z,35.51
2023-05-01T12:34:39.019Z,35.52
2023-05-01T12:35:39.024Z,35.56
2023-05-01T12:36:39.383Z,35.57
2023-05-01T12:37:39.423Z,35.61
2023-05-01T12:38:39.084Z,35.54
2023-05-01T12:39:39.087Z,35.56
2023-05-01T12:40:39.097Z,35.58
2023-05-01T12:41:39.128Z,35.57
2023-05-01T12:42:39.135Z,35.51
2023-05-01T12:43:39.125Z,35.58
2023-05-01T12:44:39.131Z,35.51
2023-05-01T12:45:39.147Z,35.57
2023-05-01T12:46:39.181Z,35.58
2023-05-01T12:47:39.279Z,35.59
2023-05-01T12:48:39.249Z,35.57
2023-05-01T12:49:39.264Z,35.57
2023-05-01T12:50:39.283Z,35.59
2023-05-01T12:51:39.306Z,35.59
2023-05-01T12:52:39.298Z,35.58